Aviation Digital Data Service (ADDS)

Output produced by METARs form (0039 UTC 24 May 2022)
found at http://www.aviationweather.gov/metar/data/
 
TAF SABE 232300Z 2400/2424 VRB03KT 9999 BKN045 TX18/2418Z TN14/2411Z 
     BECMG 2403/2404 8000 NSW 
     BECMG 2410/2412 36010KT CAVOK
       
TAF SACO 232300Z 2400/2424 36005KT CAVOK TX20/2418Z TN08/2410Z 
     PROB30 
     TEMPO 2408/2411 20005KT 5000 BR SCT012 
     BECMG 2412/2415 20015KT 9999 BKN020
       
TAF SARI 232300Z 2400/2424 07005KT CAVOK TX25/2418Z TN12/2410Z 
     PROB40 2408/2411 5000 BR NSC
       
TAF SAZB 232300Z 2400/2424 34010KT 9000 -DZRA FEW020 OVC040 TX14/2418Z
TN06/2411Z 
     TEMPO 2401/2405 6000 RA OVC025 
     BECMG 2406/2408 27005KT 5000 DZ BR BKN040 
     BECMG 2412/2414 27010KT CAVOK
       
TAF SAVC 232300Z 2400/2424 29020G30KT CAVOK TX08/2418Z TN03/2411Z 
     PROB40 
     TEMPO 2408/2412 27020KT 9999 -RA BKN030 OVC050 
     BECMG 2413/2414 23020KT 9999 SCT030 
     BECMG 2418/2420 BKN030
       
TAF SAME 232300Z 2400/2424 23005KT CAVOK TX16/2420Z TN05/2410Z 
     PROB30 
     TEMPO 2411/2414 18005KT 6000 HZFU NSC 
     BECMG 2415/2417 14005KT 9999 NSW FEW040 SCT100
       
TAF SARF 232300Z 2400/2424 05005KT CAVOK TX27/2418Z TN12/2410Z 
     PROB40 2408/2411 5000 BR NSC
       
TAF SASJ 232300Z 2400/2424 05005KT CAVOK TX25/2418Z TN08/2410Z 
     PROB40 2408/2411 VRB03KT 5000 BR SCT012 BKN020 
     BECMG 2413/2415 9999 NSW BKN025
       
TAF SASA 232300Z 2400/2424 02005KT CAVOK TX25/2418Z TN08/2410Z 
     PROB40 2408/2411 VRB03KT 5000 BR SCT012 BKN020 
     BECMG 2413/2415 9999 NSW BKN025
       
TAF SASA 232300Z 2400/2424 02005KT CAVOK TX25/2418Z TN08/2410Z 
     PROB40 2408/2411 VRB03KT 5000 BR SCT012 BKN020 
     BECMG 2413/2415 9999 NSW BKN025
       
TAF SAZM 232300Z 2400/2424 14005KT 9999 BKN030 TX17/2318Z TN07/2410Z 
     BECMG 2401/2403 7000 RA DZ BKN015 OVC045 
     TEMPO 2410/2415 20010KT 4000 +RA 
     BECMG 2417/2419 04005KT 9999 NSW SCT030
       
TAF SAEZ 232300Z 2400/2424 05005KT CAVOK TX20/2418Z TN12/2410Z 
     BECMG 2415/2417 18005KT 9999 BKN045 
     TEMPO 2419/2424 8000 -DZRA BKN025 OVC045
       
TAF SARP 232300Z 2400/2424 09005KT CAVOK TX27/2418Z TN13/2410Z 
     PROB40 2408/2411 5000 BR NSC
       
TAF COR SAZN 232356Z 2400/2424 34015KT 9999 SCT025 OVC050 TX14/2419Z TN01/2410Z 
     TEMPO 2400/2402 7000 -RA BKN025 OVC040 
     BECMG 2401/2403 VRB03KT 
     BECMG 242412/2414 25020KT CAVOK
       
TAF SARE 232300Z 2400/2424 05005KT CAVOK TX27/2418Z TN11/2410Z 
     PROB40 2408/2411 5000 BR NSC
       
TAF SAWG 232300Z 2400/2424 27020KT 9999 SCT030 SCT090 TX06/2418Z TN01/2411Z 
     BECMG 2404/2406 25020G30KT -SHRASN SCT020 SCT030 BKN060 
     BECMG 2412/2414 23020KT NSW FEW030
       
TAF AMD SAWE 2400/2424 16015KT 9999 SCT015 TX04/2418Z TNM01/2400Z 
     PROB40 
     TEMPO 2400/2402 20005KT 0200 FZFG SCT010 
     BECMG 2415/2417 29012KT
       
TAF SAAR 232300Z 2400/2424 07005KT CAVOK TX24/2418Z TN10/2410Z 
     BECMG 2415/2418 SCT020 
     BECMG 2421/2423 BKN020 OVC040
       
TAF SASA 232300Z 2400/2424 02005KT CAVOK TX25/2418Z TN08/2410Z 
     PROB40 2408/2411 VRB03KT 5000 BR SCT012 BKN020 
     BECMG 2413/2415 9999 NSW BKN025
       
TAF SASA 232300Z 2400/2424 02005KT CAVOK TX25/2418Z TN08/2410Z 
     PROB40 2408/2411 VRB03KT 5000 BR SCT012 BKN020 
     BECMG 2413/2415 9999 NSW BKN025
       
TAF SAZS 2400/2424 30020KT 9999 BKN008 OVC015 TX02/2418Z TNM01/2409Z 
     TEMPO 2400/2403 7000 RASN SCT005 OVC015 
     BECMG 2405/2407 30015G30KT 5000 SN BKN010 OVC040 
     TEMPO 2408/2412 2000 +SN 
     BECMG 2415/2417 29010KT 9999 NSW BKN030
       
TAF SADF 232300Z 2400/2424 06005KT 9999 SCT040 TX21/2418Z TN11/2410Z 
     BECMG 2414/2416 36010KTCAVOK
       
TAF SANT 232300Z 2400/2424 25005KT 8000 NSC TX26/2418Z TN12/2410Z 
     BECMG 2414/2417 25010KT 6000 NSC
       
TAF SAWH 232300Z 2400/2424 20005KT 9999 -SHSN BKN015 TX03/2418Z TNM02/2404Z 
     PROB40 
     TEMPO 2406/2412 3000 SN SCT010 BKN015 OVC050 
     BECMG 2416/2418 29008KT NSW SCT030